createdAt,value
2022-08-19T00:04:37.794Z,99721.21
2022-08-19T00:09:41.109Z,99721.09
2022-08-19T00:14:44.419Z,99712.95
2022-08-19T00:19:47.833Z,99703.83
2022-08-19T00:24:51.153Z,99704.02
2022-08-19T00:29:55.173Z,99701.11
2022-08-19T00:34:58.585Z,99712.96
2022-08-19T00:40:03.975Z,99721.15
2022-08-19T00:45:12.976Z,99724.20
2022-08-19T00:50:19.566Z,99718.63
2022-08-19T00:55:26.271Z,99713.84
2022-08-19T01:00:31.425Z,99719.10
2022-08-19T01:05:36.230Z,99716.02
2022-08-19T01:10:44.905Z,99717.90
2022-08-19T01:15:53.722Z,99717.34
2022-08-19T01:21:03.404Z,99718.77
2022-08-19T01:26:06.615Z,99719.17
2022-08-19T01:31:27.158Z,99724.16
2022-08-19T01:36:38.016Z,99722.46
2022-08-19T01:41:41.327Z,99725.42
2022-08-19T01:46:45.356Z,99720.27
2022-08-19T01:51:50.580Z,99715.25
2022-08-19T01:56:59.963Z,99719.40
2022-08-19T02:02:05.407Z,99718.84
2022-08-19T02:07:09.453Z,99715.70
2022-08-19T02:12:12.764Z,99717.38
2022-08-19T02:17:16.074Z,99714.73
2022-08-19T02:22:19.386Z,99708.30
2022-08-19T02:27:23.900Z,99707.91
2022-08-19T02:32:27.237Z,99707.14
2022-08-19T02:37:49.137Z,99705.61
2022-08-19T02:42:53.334Z,99707.03
2022-08-19T02:47:58.268Z,99702.40
2022-08-19T02:53:01.780Z,99713.48
2022-08-19T02:58:05.091Z,99713.33
2022-08-19T03:03:11.986Z,99711.05
2022-08-19T03:08:15.397Z,99709.78
2022-08-19T03:13:19.634Z,99705.96
2022-08-19T03:18:23.122Z,99698.85
2022-08-19T03:23:26.765Z,99701.50
2022-08-19T03:28:30.280Z,99712.75
2022-08-19T03:33:34.718Z,99710.61
2022-08-19T03:38:44.536Z,99712.45
2022-08-19T03:43:48.712Z,99710.30
2022-08-19T03:48:55.088Z,99706.90
2022-08-19T03:54:00.610Z,99700.39
2022-08-19T03:59:05.667Z,99701.42
2022-08-19T04:04:09.693Z,99706.14
2022-08-19T04:09:13.463Z,99715.66
2022-08-19T04:14:20.560Z,99716.91
2022-08-19T04:19:24.636Z,99725.34
2022-08-19T04:24:29.638Z,99730.67
2022-08-19T04:29:34.280Z,99733.80
2022-08-19T04:35:01.533Z,99734.64
2022-08-19T04:40:20.853Z,99733.04
2022-08-19T04:45:24.056Z,99731.83
2022-08-19T04:50:28.280Z,99727.44
2022-08-19T04:55:34.355Z,99725.25
2022-08-19T05:00:41.380Z,99724.02
2022-08-19T05:05:49.889Z,99719.50
2022-08-19T05:10:53.709Z,99716.92
2022-08-19T05:15:58.710Z,99720.27
2022-08-19T05:21:27.367Z,99712.25
2022-08-19T05:26:30.777Z,99704.52
2022-08-19T05:31:35.113Z,99710.94
2022-08-19T05:36:42.487Z,99715.23
2022-08-19T05:41:50.950Z,99715.42
2022-08-19T05:46:55.032Z,99721.20
2022-08-19T05:51:58.392Z,99722.92
2022-08-19T05:57:02.693Z,99718.52
2022-08-19T06:02:07.691Z,99728.95
2022-08-19T06:07:12.132Z,99742.25
2022-08-19T06:12:16.345Z,99756.97
2022-08-19T06:17:23.958Z,99760.70
2022-08-19T06:22:28.498Z,99759.04
2022-08-19T06:27:33.241Z,99753.50
2022-08-19T06:32:39.907Z,99755.55
2022-08-19T06:37:47.054Z,99755.77
2022-08-19T06:42:55.111Z,99763.13
2022-08-19T06:47:58.651Z,99761.73
2022-08-19T06:53:04.641Z,99761.26
2022-08-19T06:58:08.138Z,99761.65
2022-08-19T07:03:13.171Z,99756.05
2022-08-19T07:08:16.653Z,99747.89
2022-08-19T07:13:22.750Z,99747.59
2022-08-19T07:18:26.177Z,99742.31
2022-08-19T07:23:30.548Z,99740.10
2022-08-19T07:28:34.273Z,99741.00
2022-08-19T07:33:37.838Z,99744.80
2022-08-19T07:38:45.519Z,99754.67
2022-08-19T07:43:50.476Z,99755.14
2022-08-19T07:48:53.868Z,99752.98
2022-08-19T07:53:57.845Z,99752.52
2022-08-19T07:59:02.127Z,99745.35
2022-08-19T08:04:24.793Z,99741.95
2022-08-19T08:09:29.639Z,99747.65
2022-08-19T08:14:39.503Z,99759.59
2022-08-19T08:19:48.240Z,99757.71
2022-08-19T08:24:56.104Z,99759.42
2022-08-19T08:29:59.777Z,99760.08
2022-08-19T08:35:09.011Z,99757.01
2022-08-19T08:40:27.755Z,99751.77
2022-08-19T08:45:33.078Z,99753.85
2022-08-19T08:50:48.757Z,99753.65
2022-08-19T08:55:52.895Z,99753.50
2022-08-19T09:00:56.199Z,99754.29
2022-08-19T09:06:13.437Z,99752.52
2022-08-19T09:11:42.772Z,99745.30
2022-08-19T09:16:49.614Z,99735.77
2022-08-19T09:21:52.879Z,99744.15
2022-08-19T09:26:56.300Z,99740.35
2022-08-19T09:32:00.669Z,99743.05
2022-08-19T09:37:07.648Z,99746.63
2022-08-19T09:42:16.189Z,99748.00
2022-08-19T09:47:23.317Z,99744.73
2022-08-19T09:52:32.627Z,99742.13
2022-08-19T09:57:36.725Z,99729.81
2022-08-19T10:02:39.747Z,99729.98
2022-08-19T10:07:43.142Z,99730.98
2022-08-19T10:12:48.831Z,99731.49
2022-08-19T10:17:55.304Z,99725.16
2022-08-19T10:23:00.611Z,99725.95
2022-08-19T10:28:10.733Z,99715.71
2022-08-19T10:33:15.089Z,99717.48
2022-08-19T10:38:18.264Z,99719.29
2022-08-19T10:43:21.574Z,99709.90
2022-08-19T10:48:24.782Z,99704.79
2022-08-19T10:53:28.195Z,99701.37
2022-08-19T10:58:31.813Z,99696.61
2022-08-19T11:03:35.026Z,99682.21
2022-08-19T11:08:38.948Z,99677.94
2022-08-19T11:13:44.103Z,99661.48
2022-08-19T11:18:50.216Z,99657.94
2022-08-19T11:23:56.486Z,99657.08
2022-08-19T11:29:01.371Z,99659.77
2022-08-19T11:34:07.202Z,99662.83
2022-08-19T11:39:13.200Z,99662.43
2022-08-19T11:44:16.359Z,99661.52
2022-08-19T11:49:21.003Z,99662.15
2022-08-19T11:54:24.107Z,99654.30
2022-08-19T11:59:28.440Z,99647.77
2022-08-19T12:04:32.982Z,99636.15
2022-08-19T12:09:36.395Z,99624.94
2022-08-19T12:14:47.801Z,99629.39
2022-08-19T12:19:50.943Z,99626.09
2022-08-19T12:24:55.133Z,99617.85
2022-08-19T12:29:58.548Z,99615.44
2022-08-19T12:35:02.369Z,99624.89
2022-08-19T12:40:06.482Z,99620.41
2022-08-19T12:45:11.854Z,99610.09
2022-08-19T12:50:15.374Z,99604.50
2022-08-19T12:55:20.091Z,99602.15
2022-08-19T13:00:24.202Z,99606.81
2022-08-19T13:05:30.831Z,99595.41
2022-08-19T13:10:36.992Z,99593.93
2022-08-19T13:15:42.521Z,99594.99
2022-08-19T13:20:52.424Z,99599.91
2022-08-19T13:26:01.079Z,99591.11
2022-08-19T13:31:33.578Z,99581.98
2022-08-19T13:36:38.117Z,99573.35
2022-08-19T13:41:49.310Z,99569.21
2022-08-19T13:46:54.515Z,99571.80
2022-08-19T13:51:57.951Z,99577.85
2022-08-19T13:57:01.192Z,99576.35
2022-08-19T14:02:06.513Z,99579.35
2022-08-19T14:07:10.873Z,99583.50
2022-08-19T14:12:13.995Z,99585.09
2022-08-19T14:17:17.365Z,99579.05
2022-08-19T14:22:22.422Z,99574.37
2022-08-19T14:27:26.505Z,99574.63
2022-08-19T14:32:31.890Z,99567.38
2022-08-19T14:37:45.451Z,99567.00
2022-08-19T14:42:49.693Z,99563.48
2022-08-19T14:47:53.652Z,99560.74
2022-08-19T14:53:09.090Z,99566.34
2022-08-19T14:58:29.583Z,99580.70
2022-08-19T15:03:33.737Z,99580.46
2022-08-19T15:08:40.221Z,99587.66
2022-08-19T15:13:45.181Z,99587.45
2022-08-19T15:18:51.497Z,99592.60
2022-08-19T15:23:57.070Z,99591.48
2022-08-19T15:29:02.337Z,99589.64
2022-08-19T15:34:07.189Z,99595.54
2022-08-19T15:39:11.013Z,99595.27
2022-08-19T15:44:18.646Z,99588.59
2022-08-19T15:49:23.033Z,99570.13
2022-08-19T15:54:26.261Z,99568.88
2022-08-19T15:59:48.313Z,99570.01
2022-08-19T16:05:12.919Z,99568.77
2022-08-19T16:10:26.969Z,99577.77
2022-08-19T16:15:31.185Z,99571.73
2022-08-19T16:20:35.619Z,99568.77
2022-08-19T16:25:39.501Z,99567.24
2022-08-19T16:30:48.577Z,99562.59
2022-08-19T16:35:57.809Z,99556.10
2022-08-19T16:41:08.250Z,99556.07
2022-08-19T16:46:13.509Z,99549.04
2022-08-19T16:51:23.046Z,99545.44
2022-08-19T16:56:28.627Z,99546.82
2022-08-19T17:01:31.901Z,99548.10
2022-08-19T17:06:37.138Z,99555.55
2022-08-19T17:11:40.302Z,99564.34
2022-08-19T17:16:43.715Z,99564.75
2022-08-19T17:21:47.487Z,99565.61
2022-08-19T17:26:50.644Z,99563.48
2022-08-19T17:31:54.160Z,99573.34
2022-08-19T17:36:57.367Z,99574.42
2022-08-19T17:42:02.684Z,99570.98
2022-08-19T17:47:06.485Z,99569.17
2022-08-19T17:52:10.191Z,99567.88
2022-08-19T17:57:14.296Z,99570.65
2022-08-19T18:02:19.866Z,99578.77
2022-08-19T18:07:25.631Z,99583.71
2022-08-19T18:12:28.940Z,99584.58
2022-08-19T18:17:33.517Z,99594.54
2022-08-19T18:22:39.386Z,99598.38
2022-08-19T18:27:43.687Z,99599.75
2022-08-19T18:32:49.974Z,99605.55
2022-08-19T18:37:53.194Z,99603.37
2022-08-19T18:43:11.790Z,99600.52
2022-08-19T18:48:58.274Z,99601.83
2022-08-19T18:54:01.784Z,99597.79
2022-08-19T18:59:04.891Z,99588.97
2022-08-19T19:04:13.631Z,99587.64
2022-08-19T19:09:21.752Z,99583.89
2022-08-19T19:14:50.569Z,99588.22
2022-08-19T19:19:54.389Z,99592.81
2022-08-19T19:24:59.582Z,99592.18
2022-08-19T19:30:02.850Z,99589.50
2022-08-19T19:35:09.555Z,99587.20
2022-08-19T19:40:12.779Z,99584.98
2022-08-19T19:45:17.231Z,99588.70
2022-08-19T19:50:20.374Z,99582.73
2022-08-19T19:55:26.864Z,99579.98
2022-08-19T20:00:30.121Z,99582.56
2022-08-19T20:05:33.168Z,99585.00
2022-08-19T20:10:36.926Z,99580.05
2022-08-19T20:15:42.664Z,99584.96
2022-08-19T20:20:50.502Z,99590.88
2022-08-19T20:25:54.589Z,99588.20
2022-08-19T20:30:58.124Z,99587.86
2022-08-19T20:36:02.033Z,99588.52
2022-08-19T20:41:06.203Z,99587.84
2022-08-19T20:46:09.697Z,99590.30
2022-08-19T20:51:13.691Z,99596.66
2022-08-19T20:56:16.908Z,99603.55
2022-08-19T21:01:20.097Z,99609.44
2022-08-19T21:06:24.089Z,99616.19
2022-08-19T21:11:27.301Z,99613.54
2022-08-19T21:16:32.825Z,99616.85
2022-08-19T21:21:36.375Z,99615.48
2022-08-19T21:26:39.999Z,99611.83
2022-08-19T21:31:43.613Z,99615.54
2022-08-19T21:36:46.926Z,99610.27
2022-08-19T21:41:50.030Z,99607.97
2022-08-19T21:46:53.236Z,99601.58
2022-08-19T21:51:56.449Z,99603.34
2022-08-19T21:56:59.540Z,99598.73
2022-08-19T22:02:19.007Z,99609.56
2022-08-19T22:07:23.143Z,99603.74
2022-08-19T22:12:33.039Z,99604.95
2022-08-19T22:17:36.861Z,99602.09
2022-08-19T22:22:49.492Z,99618.71
2022-08-19T22:27:56.842Z,99627.34
2022-08-19T22:33:13.732Z,99622.07
2022-08-19T22:38:17.038Z,99609.48
2022-08-19T22:43:21.883Z,99596.27
2022-08-19T22:48:28.405Z,99590.02
2022-08-19T22:53:33.824Z,99582.90
2022-08-19T22:58:37.074Z,99599.11
2022-08-19T23:03:45.205Z,99611.37
2022-08-19T23:08:48.458Z,99616.77
2022-08-19T23:13:51.821Z,99607.57
2022-08-19T23:18:56.079Z,99621.17
2022-08-19T23:23:59.429Z,99644.77
2022-08-19T23:29:21.483Z,99658.95
2022-08-19T23:34:24.690Z,99663.91
2022-08-19T23:39:30.063Z,99662.02
2022-08-19T23:44:33.156Z,99668.71
2022-08-19T23:49:37.919Z,99681.07
2022-08-19T23:54:43.536Z,99683.14
2022-08-19T23:59:46.945Z,99700.00
